Time;durP1;ratioP1;P1;durP2;ratioP2;P2;SDS_P1;SDS_P2;PMS_P1;PMS_P2;Temp;Humidity;BMP_temperature;BMP_pressure;BME280_temperature;BME280_humidity;BME280_pressure;Samples;Min_cycle;Max_cycle;Signal;HPM_P1;HPM_P2
2023/01/17 00:01:05;;;;;;;19.10;11.50;;;;;;;5.41;69.43;96435.66;229866;1206;965071;-67
2023/01/17 01:38:40;;;;;;;17.90;12.20;;;;;;;5.65;67.49;96385.26;232593;1209;139111;-64
2023/01/17 01:45:50;;;;;;;;;;;;;;;;;;;;;
2023/01/17 02:21:22;;;;;;;11.00;5.70;;;;;;;6.00;64.61;96362.95;232289;1209;139211;-65
2023/01/17 02:32:55;;;;;;;;;;;;;;;;;;;;;
2023/01/17 02:38:43;;;;;;;9.70;5.20;;;;;;;6.19;63.19;96367.41;233052;1206;138796;-68
2023/01/17 02:44:32;;;;;;;11.30;5.90;;;;;;;6.20;63.24;96364.39;233495;1204;139548;-67
2023/01/17 04:00:36;;;;;;;6.20;3.70;;;;;;;4.50;66.31;96441.45;234334;1203;138746;-66
2023/01/17 04:06:46;;;;;;;7.50;4.10;;;;;;;4.44;66.46;96441.39;233416;1203;139248;-64
2023/01/17 04:35:28;;;;;;;;;;;;;;;;;;;;;
2023/01/17 04:41:47;;;;;;;;;;;;;;;;;;;;;
2023/01/17 04:48:32;;;;;;;;;;;;;;;;;;;;;
2023/01/17 04:54:16;;;;;;;;;;;;;;;;;;;;;
2023/01/17 05:00:35;;;;;;;5.70;4.20;;;;;;;4.34;67.62;96442.76;233750;1203;140273;-66
2023/01/17 05:06:25;;;;;;;;;;;;;;;;;;;;;
2023/01/17 05:42:45;;;;;;;28.60;16.20;;;;;;;4.74;72.23;96459.19;229936;1216;139431;-66
2023/01/17 05:55:46;;;;;;;;;;;;;;;6.58;63.35;96416.63;231145;1216;139132;-66
2023/01/17 06:03:00;;;;;;;;;;;;;;;;;;;;;
2023/01/17 07:19:18;;;;;;;13.10;8.00;;;;;;;4.97;67.99;96455.39;231402;1212;140956;-70
2023/01/17 07:26:47;;;;;;;14.80;8.50;;;;;;;5.07;67.87;96444.77;231970;1213;635899;-66
2023/01/17 07:40:03;;;;;;;;;;;;;;;;;;;;;
2023/01/17 07:45:55;;;;;;;;;;;;;;;;;;;;;
2023/01/17 07:51:32;;;;;;;11.90;7.80;;;;;;;5.39;66.50;96459.55;235196;1192;138807;-68
2023/01/17 07:57:36;;;;;;;;;;;;;;;;;;;;;
2023/01/17 08:03:34;;;;;;;;;;;;;;;;;;;;;
2023/01/17 08:08:58;;;;;;;18.00;11.00;;;;;;;5.55;66.57;96472.50;235013;1193;139411;-70
2023/01/17 08:14:37;;;;;;;23.10;11.80;;;;;;;5.55;66.99;96478.58;234897;1193;139075;-66
2023/01/17 08:21:02;;;;;;;33.80;14.00;;;;;;;5.53;67.12;96493.41;234949;1192;139540;-67
2023/01/17 08:26:53;;;;;;;26.80;12.30;;;;;;;5.50;67.76;96499.58;235386;1190;138836;-66
2023/01/17 08:32:57;;;;;;;23.80;14.60;;;;;;;5.64;67.58;96509.55;235467;1193;141922;-65
2023/01/17 08:53:28;;;;;;;18.30;10.70;;;;;;;6.10;65.35;96527.36;234089;1196;138636;-65
2023/01/17 09:07:10;;;;;;;20.30;9.60;;;;;;;6.27;64.67;96538.27;234081;1196;139412;-66
2023/01/17 09:14:27;;;;;;;;;;;;;;;;;;;;;
2023/01/17 09:28:41;;;;;;;;;;;;;;;;;;;;;
2023/01/17 09:46:26;;;;;;;24.30;13.80;;;;;;;6.75;64.58;96556.70;233279;1206;636228;-65
2023/01/17 09:52:55;;;;;;;;;;;;;;;;;;;;;
2023/01/17 09:59:09;;;;;;;;;;;;;;;;;;;;;
2023/01/17 10:05:52;;;;;;;21.70;13.60;;;;;;;6.81;64.98;96551.22;234802;1193;138657;-66
2023/01/17 10:12:25;;;;;;;25.70;13.60;;;;;;;6.94;65.07;96554.15;235049;1196;138618;-66
2023/01/17 10:18:58;;;;;;;22.10;13.10;;;;;;;7.11;65.33;96547.52;234733;1196;139770;-67
2023/01/17 10:24:54;;;;;;;16.40;8.40;;;;;;;7.24;64.84;96554.44;235069;1195;140205;-66
2023/01/17 10:30:48;;;;;;;;;;;;;;;;;;;;;
2023/01/17 10:37:21;;;;;;;13.10;8.70;;;;;;;7.84;62.86;96554.17;235094;1193;138860;-67
2023/01/17 10:43:17;;;;;;;13.00;7.90;;;;;;;8.22;61.67;96555.45;235168;1193;138844;-67
2023/01/17 10:49:17;;;;;;;11.80;7.70;;;;;;;8.54;60.49;96561.21;235249;1192;139584;-68
2023/01/17 10:55:29;;;;;;;12.60;8.10;;;;;;;8.90;59.44;96566.79;235185;1193;140335;-65
2023/01/17 11:01:21;;;;;;;11.90;7.80;;;;;;;9.90;62.54;96568.77;235062;1195;139335;-65
2023/01/17 11:07:47;;;;;;;13.00;8.00;;;;;;;9.89;56.53;96565.58;234979;1192;139066;-62
2023/01/17 11:14:03;;;;;;;14.00;8.60;;;;;;;9.65;56.57;96575.27;234976;1193;140922;-62
2023/01/17 11:19:50;;;;;;;14.20;7.30;;;;;;;9.54;56.44;96578.17;234198;1198;138837;-63
2023/01/17 11:25:26;;;;;;;10.80;6.20;;;;;;;9.52;55.52;96573.27;235516;1193;139478;-62
2023/01/17 11:31:06;;;;;;;97.70;60.90;;;;;;;9.51;54.59;96580.13;235138;1193;139120;-65
2023/01/17 11:37:28;;;;;;;15.20;5.80;;;;;;;9.92;57.77;96577.45;234973;1195;139699;-65
2023/01/17 11:50:08;;;;;;;;;;;;;;;;;;;;;
2023/01/17 12:02:05;;;;;;;8.00;3.50;;;;;;;9.44;50.02;96564.63;232251;1215;635598;-62
2023/01/17 12:07:53;;;;;;;9.50;4.00;;;;;;;9.30;49.08;96562.31;234283;1198;138994;-67
2023/01/17 12:20:40;;;;;;;11.60;5.40;;;;;;;9.30;49.55;96541.45;234721;1198;138896;-64
2023/01/17 12:26:49;;;;;;;13.00;5.80;;;;;;;9.38;49.70;96542.71;234971;1196;139555;-65
2023/01/17 12:33:07;;;;;;;;;;;;;;;;;;;;;
2023/01/17 12:39:24;;;;;;;;;;;;;;;;;;;;;
2023/01/17 12:52:04;;;;;;;16.00;6.80;;;;;;;9.65;50.24;96546.88;235035;1196;139381;-64
2023/01/17 13:11:07;;;;;;;12.40;6.30;;;;;;;9.78;50.08;96546.84;234635;1192;140657;-64
2023/01/17 13:16:56;;;;;;;13.00;6.60;;;;;;;9.92;49.42;96556.14;234945;1193;139043;-63
2023/01/17 13:23:00;;;;;;;;;;;;;;;;;;;;;
2023/01/17 13:29:25;;;;;;;11.20;5.00;;;;;;;10.03;49.59;96571.02;235064;1193;138586;-62
2023/01/17 14:53:44;;;;;;;10.50;3.60;;;;;;;9.40;48.44;96682.87;233940;1200;139080;-68
2023/01/17 14:59:45;;;;;;;12.80;3.30;;;;;;;9.30;48.61;96698.69;220011;1203;14572357;-66
2023/01/17 15:04:59;;;;;;;7.70;3.40;;;;;;;9.12;49.41;96699.48;234003;1201;142331;-67
2023/01/17 15:11:10;;;;;;;10.10;3.40;;;;;;;9.04;49.30;96710.14;234232;1200;138717;-65
2023/01/17 15:17:37;;;;;;;12.60;4.90;;;;;;;8.99;49.42;96713.86;234315;1198;138513;-66
2023/01/17 15:23:14;;;;;;;9.60;4.20;;;;;;;8.73;50.57;96720.09;234018;1200;139627;-65
2023/01/17 15:29:09;;;;;;;;;;;;;;;;;;;;;
2023/01/17 15:35:24;;;;;;;17.50;4.70;;;;;;;8.19;51.80;96729.39;234548;1196;138745;-66
2023/01/17 15:40:54;;;;;;;;;;;;;;;;;;;;;
2023/01/17 15:47:04;;;;;;;169.10;107.50;;;;;;;7.81;53.00;96728.30;234692;1196;139587;-67
2023/01/17 15:53:28;;;;;;;15.60;7.40;;;;;;;7.75;54.29;96739.26;234562;1195;139339;-67
2023/01/17 16:11:05;;;;;;;;;;;;;;;;;;;;;
2023/01/17 16:17:35;;;;;;;;;;;;;;;;;;;;;
2023/01/17 16:23:38;;;;;;;21.80;5.50;;;;;;;6.98;55.73;96699.71;233950;1200;139112;-65
2023/01/17 16:51:06;;;;;;;24.50;8.70;;;;;;;6.59;58.17;96671.45;233860;1200;138406;-63
2023/01/17 17:09:57;;;;;;;19.70;9.20;;;;;;;6.63;59.46;96680.80;236984;1189;140337;-64
2023/01/17 17:22:21;;;;;;;17.50;7.40;;;;;;;6.42;59.17;96679.99;239145;1182;138022;-65
2023/01/17 17:28:41;;;;;;;26.30;12.80;;;;;;;6.33;59.54;96676.68;239390;1181;138482;-66
2023/01/17 17:34:24;;;;;;;34.40;17.60;;;;;;;6.26;59.45;96661.24;239408;1182;139843;-65
2023/01/17 17:40:49;;;;;;;131.20;84.80;;;;;;;6.19;59.77;96672.20;239408;1182;138565;-67
2023/01/17 17:47:04;;;;;;;30.20;15.50;;;;;;;6.24;60.72;96678.64;239511;1181;140383;-65
2023/01/17 17:52:43;;;;;;;;;;;;;;;;;;;;;
2023/01/17 17:59:03;;;;;;;34.50;17.20;;;;;;;6.17;60.33;96658.80;239907;1179;138850;-64
2023/01/17 19:06:22;;;;;;;38.80;21.00;;;;;;;6.07;61.63;96702.89;232085;1211;645185;-66
2023/01/17 19:11:36;;;;;;;38.70;21.40;;;;;;;6.01;61.58;96687.08;234719;1195;139288;-67
2023/01/17 19:18:01;;;;;;;35.80;21.30;;;;;;;6.00;61.78;96682.05;234788;1195;139205;-67
2023/01/17 19:24:11;;;;;;;40.10;22.40;;;;;;;5.99;62.06;96671.92;234775;1194;139218;-65
2023/01/17 19:30:05;;;;;;;46.80;25.50;;;;;;;5.99;61.72;96670.70;234842;1195;138873;-67
2023/01/17 19:36:12;;;;;;;77.30;41.00;;;;;;;6.00;62.22;96675.48;234787;1195;139259;-68
2023/01/17 19:42:07;;;;;;;48.90;26.10;;;;;;;6.51;63.32;96684.85;234579;1194;139007;-66
2023/01/17 19:48:15;;;;;;;;;;;;;;;;;;;;;
2023/01/17 20:07:49;;;;;;;;;;;;;;;;;;;;;
2023/01/17 20:14:29;;;;;;;43.20;24.60;;;;;;;6.25;61.59;96654.08;234008;1200;139057;-64
2023/01/17 20:20:43;;;;;;;39.90;24.50;;;;;;;6.18;61.84;96643.23;234400;1198;138844;-64
2023/01/17 20:27:43;;;;;;;39.20;21.90;;;;;;;6.13;62.07;96642.59;234519;1199;138934;-65
2023/01/17 20:34:32;;;;;;;123.80;75.90;;;;;;;6.84;66.68;96620.15;234454;1195;138924;-63
2023/01/17 20:41:02;;;;;;;37.20;20.80;;;;;;;6.98;61.44;96617.71;234323;1196;139347;-64
2023/01/17 20:46:39;;;;;;;37.10;20.90;;;;;;;6.75;61.34;96615.02;234449;1196;139168;-64
2023/01/17 20:53:11;;;;;;;;;;;;;;;;;;;;;
2023/01/17 21:06:12;;;;;;;31.60;19.40;;;;;;;6.42;62.19;96617.60;234425;1196;138689;-64
2023/01/17 21:12:22;;;;;;;;;;;;;;;;;;;;;
2023/01/17 21:17:55;;;;;;;29.80;17.10;;;;;;;6.34;62.40;96630.09;234541;1196;139229;-65
2023/01/17 21:24:16;;;;;;;31.30;17.90;;;;;;;6.31;62.62;96626.81;234637;1196;138765;-66
2023/01/17 21:29:34;;;;;;;27.40;15.90;;;;;;;6.31;62.69;96608.82;234624;1196;138764;-65
2023/01/17 21:35:29;;;;;;;26.90;15.20;;;;;;;6.25;62.78;96599.37;234602;1196;139642;-65
2023/01/17 21:41:27;;;;;;;27.00;14.70;;;;;;;6.20;62.93;96596.55;234472;1196;138599;-63
2023/01/17 21:47:06;;;;;;;;;;;;;;;;;;;;;
2023/01/17 21:52:42;;;;;;;20.40;11.90;;;;;;;6.17;63.13;96596.08;234512;1196;141561;-67
2023/01/17 22:04:12;;;;;;;19.50;10.60;;;;;;;6.21;63.36;96574.70;232587;1209;635833;-66
2023/01/17 22:10:43;;;;;;;17.60;10.00;;;;;;;6.24;63.37;96563.16;234583;1196;138364;-66
2023/01/17 22:16:16;;;;;;;17.20;9.30;;;;;;;6.26;63.36;96548.00;234632;1196;139146;-65
2023/01/17 22:22:14;;;;;;;15.90;9.50;;;;;;;6.27;63.39;96538.91;234612;1197;138863;-66
2023/01/17 22:28:31;;;;;;;16.10;9.50;;;;;;;6.26;63.39;96537.45;235564;1190;138301;-65
2023/01/17 22:34:34;;;;;;;;;;;;;;;;;;;;;
2023/01/17 22:40:54;;;;;;;15.80;9.50;;;;;;;6.27;64.46;96537.84;235407;1192;137949;-65
2023/01/17 22:46:28;;;;;;;14.00;8.40;;;;;;;6.28;64.33;96534.80;235554;1191;140441;-65
2023/01/17 22:52:26;;;;;;;13.90;8.30;;;;;;;6.29;64.35;96524.55;235552;1192;138056;-67
2023/01/17 23:04:01;;;;;;;15.10;8.60;;;;;;;6.40;65.13;96510.37;232330;1210;658437;-64
2023/01/17 23:11:37;;;;;;;13.40;7.90;;;;;;;6.48;65.31;96497.39;234310;1200;139032;-63
